Fort Benjamin Harrison, Indiana
Current Conditions -  °F | °C
As of 3:35 AM on Monday 24 Nov 2014 (Local Time) from KMQJ Reporting Station
Overcast Overcast  
Wind Chill: 55°   Ceiling: 1800
Heat Index: 55°   Visibility: 10mi
Dew Point: 55°   Wind: 13mph
Humidity: 100%   Direction: 210°SSW
Pressure: 29.24"   Gusts: NA
Location:  39.8642°N, 86.0139°W
Report Text: KMQJ 240835Z AUTO 21011KT 10SM BKN018 OVC024 13/13 A2924 RMK AO1
Loading
Personal Weather Stations






























Interactive Weather Map New forecast layout! Learn more

10-Day Weather Forecast

Advertisements
Track Severe Weather on mobile